createdAt,value
2019-01-12T00:02:16.658Z,99079.09
2019-01-12T00:04:48.351Z,99076.19
2019-01-12T00:07:20.096Z,99088.16
2019-01-12T00:09:51.822Z,99077.94
2019-01-12T00:12:23.517Z,99078.83
2019-01-12T00:14:55.464Z,99074.19
2019-01-12T00:17:27.092Z,99067.04
2019-01-12T00:19:58.601Z,99055.61
2019-01-12T00:22:30.408Z,99049.63
2019-01-12T00:25:02.448Z,99048.41
2019-01-12T00:27:34.237Z,99049.72
2019-01-12T00:30:06.613Z,99054.73
2019-01-12T00:32:38.328Z,99061.45
2019-01-12T00:35:10.235Z,99064.00
2019-01-12T00:37:42.002Z,99063.13
2019-01-12T00:40:13.936Z,99061.02
2019-01-12T00:42:45.822Z,99062.36
2019-01-12T00:45:17.706Z,99069.66
2019-01-12T00:47:49.667Z,99066.25
2019-01-12T00:50:21.877Z,99065.02
2019-01-12T00:52:53.835Z,99067.58
2019-01-12T00:55:26.602Z,99068.90
2019-01-12T00:57:58.387Z,99066.41
2019-01-12T01:00:30.395Z,99072.38
2019-01-12T01:03:02.058Z,99071.97
2019-01-12T01:05:33.944Z,99077.92
2019-01-12T01:08:05.667Z,99074.95
2019-01-12T01:10:37.537Z,99086.84
2019-01-12T01:13:09.029Z,99081.36
2019-01-12T01:15:41.044Z,99087.70
2019-01-12T01:18:12.986Z,99085.14
2019-01-12T01:20:44.980Z,99083.42
2019-01-12T01:23:16.817Z,99087.66
2019-01-12T01:25:48.982Z,99088.92
2019-01-12T01:28:21.900Z,99102.08
2019-01-12T01:30:54.089Z,99102.92
2019-01-12T01:33:28.053Z,99099.09
2019-01-12T01:35:59.284Z,99095.30
2019-01-12T01:38:30.881Z,99091.09
2019-01-12T01:41:02.379Z,99095.30
2019-01-12T01:43:34.340Z,99099.56
2019-01-12T01:46:06.335Z,99094.89
2019-01-12T01:48:38.015Z,99095.73
2019-01-12T01:51:09.720Z,99097.91
2019-01-12T01:53:41.646Z,99097.51
2019-01-12T01:56:13.544Z,99088.58
2019-01-12T01:58:45.202Z,99090.73
2019-01-12T02:01:17.044Z,99092.81
2019-01-12T02:03:48.655Z,99096.23
2019-01-12T02:06:23.455Z,99094.96
2019-01-12T02:08:55.194Z,99099.17
2019-01-12T02:11:27.149Z,99093.67
2019-01-12T02:13:58.750Z,99091.11
2019-01-12T02:16:30.850Z,99089.41
2019-01-12T02:19:02.697Z,99085.16
2019-01-12T02:21:34.271Z,99091.98
2019-01-12T02:24:06.061Z,99091.58
2019-01-12T02:26:37.929Z,99093.72
2019-01-12T02:29:09.953Z,99100.52
2019-01-12T02:31:41.415Z,99100.98
2019-01-12T02:34:15.245Z,99100.59
2019-01-12T02:36:46.631Z,99091.70
2019-01-12T02:39:18.375Z,99086.16
2019-01-12T02:41:50.250Z,99079.84
2019-01-12T02:44:21.950Z,99075.98
2019-01-12T02:46:53.482Z,99080.65
2019-01-12T02:49:25.081Z,99072.13
2019-01-12T02:51:56.958Z,99067.45
2019-01-12T02:54:28.552Z,99065.76
2019-01-12T02:57:00.153Z,99064.06
2019-01-12T02:59:32.212Z,99067.42
2019-01-12T03:02:03.854Z,99061.05
2019-01-12T03:04:35.678Z,99058.89
2019-01-12T03:07:07.690Z,99058.83
2019-01-12T03:09:40.328Z,99053.70
2019-01-12T03:12:12.006Z,99064.77
2019-01-12T03:14:43.611Z,99060.52
2019-01-12T03:17:15.402Z,99057.53
2019-01-12T03:19:47.195Z,99051.19
2019-01-12T03:22:19.091Z,99043.17
2019-01-12T03:24:50.668Z,99041.95
2019-01-12T03:27:22.759Z,99040.66
2019-01-12T03:29:54.393Z,99041.09
2019-01-12T03:32:26.097Z,99039.84
2019-01-12T03:34:58.028Z,99046.22
2019-01-12T03:37:29.786Z,99044.12
2019-01-12T03:40:01.325Z,99038.59
2019-01-12T03:42:33.605Z,99035.63
2019-01-12T03:45:05.771Z,99040.74
2019-01-12T03:47:37.368Z,99040.29
2019-01-12T03:50:11.176Z,99036.52
2019-01-12T03:52:42.903Z,99035.27
2019-01-12T03:55:14.702Z,99035.70
2019-01-12T03:57:46.460Z,99034.02
2019-01-12T04:00:24.089Z,99030.23
2019-01-12T04:02:55.678Z,99030.22
2019-01-12T04:05:27.492Z,99030.63
2019-01-12T04:07:59.232Z,99030.68
2019-01-12T04:10:30.946Z,99028.98
2019-01-12T04:13:02.704Z,99034.06
2019-01-12T04:15:34.448Z,99036.65
2019-01-12T04:18:06.180Z,99029.88
2019-01-12T04:20:37.955Z,99029.00
2019-01-12T04:23:09.936Z,99024.29
2019-01-12T04:25:41.454Z,99025.56
2019-01-12T04:28:13.069Z,99027.63
2019-01-12T04:30:44.609Z,99039.91
2019-01-12T04:33:16.169Z,99031.84
2019-01-12T04:35:47.920Z,99033.11
2019-01-12T04:38:19.527Z,99027.19
2019-01-12T04:40:51.508Z,99032.75
2019-01-12T04:43:23.197Z,99020.48
2019-01-12T04:45:54.846Z,99022.59
2019-01-12T04:48:26.567Z,99021.78
2019-01-12T04:50:58.261Z,99016.30
2019-01-12T04:53:30.128Z,99018.43
2019-01-12T04:56:01.829Z,99010.81
2019-01-12T04:58:33.305Z,99013.81
2019-01-12T05:01:05.012Z,99015.94
2019-01-12T05:03:36.676Z,99023.96
2019-01-12T05:06:08.645Z,99036.71
2019-01-12T05:08:40.757Z,99035.44
2019-01-12T05:11:12.560Z,99038.41
2019-01-12T05:13:44.184Z,99046.45
2019-01-12T05:16:15.900Z,99045.63
2019-01-12T05:18:47.967Z,99049.02
2019-01-12T05:21:19.578Z,99042.64
2019-01-12T05:23:52.236Z,99040.55
2019-01-12T05:26:24.023Z,99041.80
2019-01-12T05:28:58.958Z,99049.84
2019-01-12T05:31:30.759Z,99048.98
2019-01-12T05:34:03.336Z,99045.60
2019-01-12T05:36:35.107Z,99048.56
2019-01-12T05:39:10.509Z,99048.55
2019-01-12T05:41:42.219Z,99043.06
2019-01-12T05:44:14.484Z,99058.73
2019-01-12T05:46:46.207Z,99057.44
2019-01-12T05:49:18.011Z,99058.70
2019-01-12T05:51:49.761Z,99062.52
2019-01-12T05:54:21.751Z,99068.44
2019-01-12T05:56:53.971Z,99067.59
2019-01-12T05:59:25.754Z,99068.86
2019-01-12T06:01:57.820Z,99067.16
2019-01-12T06:04:29.564Z,99067.56
2019-01-12T06:07:01.459Z,99069.23
2019-01-12T06:09:33.518Z,99068.38
2019-01-12T06:12:05.497Z,99070.08
2019-01-12T06:14:37.195Z,99070.54
2019-01-12T06:17:09.085Z,99068.42
2019-01-12T06:19:40.897Z,99067.19
2019-01-12T06:22:12.531Z,99077.77
2019-01-12T06:24:44.065Z,99080.73
2019-01-12T06:27:15.698Z,99078.66
2019-01-12T06:29:47.570Z,99075.24
2019-01-12T06:32:19.322Z,99080.77
2019-01-12T06:34:51.019Z,99076.09
2019-01-12T06:37:24.475Z,99079.48
2019-01-12T06:39:56.116Z,99075.25
2019-01-12T06:42:27.825Z,99072.30
2019-01-12T06:44:59.583Z,99070.17
2019-01-12T06:47:31.372Z,99063.83
2019-01-12T06:50:03.072Z,99065.52
2019-01-12T06:52:35.855Z,99066.77
2019-01-12T06:55:10.239Z,99064.20
2019-01-12T06:57:42.313Z,99062.50
2019-01-12T07:00:17.944Z,99070.13
2019-01-12T07:02:49.781Z,99079.47
2019-01-12T07:05:21.795Z,99083.28
2019-01-12T07:07:53.269Z,99082.03
2019-01-12T07:10:24.959Z,99084.14
2019-01-12T07:12:57.135Z,99090.92
2019-01-12T07:15:29.616Z,99086.27
2019-01-12T07:18:01.532Z,99090.09
2019-01-12T07:20:33.212Z,99099.42
2019-01-12T07:23:04.648Z,99099.00
2019-01-12T07:25:36.629Z,99105.22
2019-01-12T07:28:10.126Z,99105.68
2019-01-12T07:30:42.404Z,99103.55
2019-01-12T07:33:14.012Z,99098.96
2019-01-12T07:35:46.823Z,99104.34
2019-01-12T07:38:19.360Z,99110.46
2019-01-12T07:40:51.225Z,99101.03
2019-01-12T07:43:22.925Z,99104.45
2019-01-12T07:45:54.693Z,99099.77
2019-01-12T07:48:26.480Z,99099.95
2019-01-12T07:50:58.781Z,99107.84
2019-01-12T07:53:30.674Z,99115.38
2019-01-12T07:56:02.440Z,99116.48
2019-01-12T07:58:35.365Z,99118.44
2019-01-12T08:01:08.020Z,99120.75
2019-01-12T08:03:39.997Z,99122.53
2019-01-12T08:06:11.969Z,99126.79
2019-01-12T08:08:44.069Z,99138.64
2019-01-12T08:11:15.953Z,99145.29
2019-01-12T08:13:47.534Z,99151.57
2019-01-12T08:16:19.760Z,99150.07
2019-01-12T08:18:51.631Z,99145.42
2019-01-12T08:21:23.382Z,99147.86
2019-01-12T08:23:55.523Z,99152.28
2019-01-12T08:26:31.195Z,99141.52
2019-01-12T08:29:01.084Z,99151.50
2019-01-12T08:31:33.052Z,99154.80
2019-01-12T08:34:04.898Z,99156.59
2019-01-12T08:36:36.810Z,99164.92
2019-01-12T08:39:10.139Z,99154.53
2019-01-12T08:41:41.848Z,99148.77
2019-01-12T08:44:13.726Z,99145.78
2019-01-12T08:46:45.499Z,99136.38
2019-01-12T08:49:17.525Z,99135.70
2019-01-12T08:51:49.683Z,99141.98
2019-01-12T08:54:21.335Z,99137.18
2019-01-12T08:56:53.236Z,99142.12
2019-01-12T08:59:26.541Z,99139.53
2019-01-12T09:01:58.584Z,99151.44
2019-01-12T09:04:32.220Z,99149.30
2019-01-12T09:07:04.260Z,99150.85
2019-01-12T09:09:36.045Z,99154.13
2019-01-12T09:12:07.766Z,99150.13
2019-01-12T09:14:40.806Z,99160.28
2019-01-12T09:17:12.602Z,99155.16
2019-01-12T09:19:44.852Z,99150.11
2019-01-12T09:22:16.889Z,99154.25
2019-01-12T09:24:49.723Z,99152.14
2019-01-12T09:27:22.215Z,99148.45
2019-01-12T09:29:54.831Z,99140.91
2019-01-12T09:32:26.517Z,99139.09
2019-01-12T09:34:58.139Z,99141.88
2019-01-12T09:37:30.363Z,99141.61
2019-01-12T09:40:02.216Z,99146.18
2019-01-12T09:42:34.824Z,99141.56
2019-01-12T09:45:09.016Z,99136.41
2019-01-12T09:47:41.264Z,99130.69
2019-01-12T09:50:17.026Z,99130.30
2019-01-12T09:52:50.559Z,99132.21
2019-01-12T09:55:23.800Z,99133.98
2019-01-12T09:57:55.699Z,99135.91
2019-01-12T10:00:29.717Z,99122.90
2019-01-12T10:03:02.136Z,99118.58
2019-01-12T10:05:34.951Z,99112.84
2019-01-12T10:08:07.703Z,99112.20
2019-01-12T10:10:40.303Z,99114.16
2019-01-12T10:13:12.622Z,99110.88
2019-01-12T10:15:44.719Z,99112.58
2019-01-12T10:18:16.571Z,99116.98
2019-01-12T10:20:48.343Z,99114.94
2019-01-12T10:23:20.653Z,99113.48
2019-01-12T10:25:52.591Z,99107.52
2019-01-12T10:28:24.684Z,99109.48
2019-01-12T10:30:56.784Z,99103.98
2019-01-12T10:33:28.704Z,99108.11
2019-01-12T10:36:00.724Z,99093.91
2019-01-12T10:38:33.531Z,99102.52
2019-01-12T10:41:05.679Z,99099.95
2019-01-12T10:43:38.358Z,99091.82
2019-01-12T10:46:11.940Z,99085.70
2019-01-12T10:48:44.011Z,99076.95
2019-01-12T10:51:16.496Z,99079.61
2019-01-12T10:53:48.489Z,99080.31
2019-01-12T10:56:21.361Z,99065.67
2019-01-12T10:58:53.427Z,99064.69
2019-01-12T11:01:25.718Z,99057.34
2019-01-12T11:03:57.762Z,99050.09
2019-01-12T11:06:30.259Z,99054.88
2019-01-12T11:09:02.715Z,99050.16
2019-01-12T11:11:35.461Z,99052.73
2019-01-12T11:14:07.647Z,99052.44
2019-01-12T11:16:40.013Z,99052.38
2019-01-12T11:19:12.228Z,99042.65
2019-01-12T11:21:45.123Z,99038.81
2019-01-12T11:24:17.705Z,99030.73
2019-01-12T11:26:50.308Z,99027.98
2019-01-12T11:29:22.064Z,99024.53
2019-01-12T11:31:54.080Z,99013.06
2019-01-12T11:34:25.791Z,99017.02
2019-01-12T11:36:57.845Z,99017.31
2019-01-12T11:39:29.577Z,99004.48
2019-01-12T11:42:03.073Z,99005.31
2019-01-12T11:44:35.162Z,99003.97
2019-01-12T11:47:09.257Z,98994.66
2019-01-12T11:49:41.546Z,98997.87
2019-01-12T11:52:15.061Z,98993.53
2019-01-12T11:54:47.218Z,98997.83
2019-01-12T11:57:20.059Z,98992.47
2019-01-12T11:59:52.208Z,98994.75
2019-01-12T12:02:24.545Z,98988.98
2019-01-12T12:04:56.755Z,98990.34
2019-01-12T12:07:29.376Z,98988.60
2019-01-12T12:10:01.420Z,98993.39
2019-01-12T12:12:33.254Z,98992.45
2019-01-12T12:15:06.542Z,98989.89
2019-01-12T12:17:39.021Z,98990.42
2019-01-12T12:20:17.656Z,98990.94
2019-01-12T12:22:51.413Z,98989.98
2019-01-12T12:25:23.319Z,98980.92
2019-01-12T12:27:55.370Z,98977.77
2019-01-12T12:30:32.395Z,98978.55
2019-01-12T12:33:04.827Z,98975.93
2019-01-12T12:35:37.892Z,98966.58
2019-01-12T12:38:10.827Z,98966.24
2019-01-12T12:40:42.922Z,98960.76
2019-01-12T12:43:14.669Z,98961.61
2019-01-12T12:45:47.252Z,98953.43
2019-01-12T12:48:19.919Z,98952.39
2019-01-12T12:50:52.039Z,98946.05
2019-01-12T12:53:24.441Z,98949.25
2019-01-12T12:55:56.790Z,98948.39
2019-01-12T12:58:29.444Z,98949.16
2019-01-12T13:01:01.475Z,98944.09
2019-01-12T13:03:33.567Z,98944.38
2019-01-12T13:06:06.832Z,98943.50
2019-01-12T13:08:38.894Z,98946.48
2019-01-12T13:11:10.946Z,98949.00
2019-01-12T13:13:43.170Z,98946.61
2019-01-12T13:16:15.240Z,98934.00
2019-01-12T13:18:48.051Z,98941.05
2019-01-12T13:21:22.095Z,98934.91
2019-01-12T13:23:54.273Z,98935.80
2019-01-12T13:26:26.619Z,98937.82
2019-01-12T13:28:58.535Z,98936.31
2019-01-12T13:31:30.604Z,98937.94
2019-01-12T13:34:02.893Z,98933.31
2019-01-12T13:36:35.027Z,98931.77
2019-01-12T13:39:10.354Z,98929.41
2019-01-12T13:41:42.221Z,98933.84
2019-01-12T13:44:14.467Z,98930.47
2019-01-12T13:46:47.777Z,98928.01
2019-01-12T13:49:19.597Z,98926.39
2019-01-12T13:51:51.566Z,98923.30
2019-01-12T13:54:23.898Z,98924.98
2019-01-12T13:56:56.019Z,98918.98
2019-01-12T13:59:27.887Z,98923.26
2019-01-12T14:02:00.233Z,98926.86
2019-01-12T14:04:32.209Z,98925.87
2019-01-12T14:07:04.135Z,98925.89
2019-01-12T14:09:37.769Z,98928.09
2019-01-12T14:12:10.416Z,98922.66
2019-01-12T14:14:44.475Z,98920.05
2019-01-12T14:17:19.480Z,98930.84
2019-01-12T14:19:51.760Z,98925.17
2019-01-12T14:22:23.824Z,98921.80
2019-01-12T14:24:55.871Z,98919.79
2019-01-12T14:27:27.715Z,98921.47
2019-01-12T14:29:59.542Z,98922.02
2019-01-12T14:32:33.489Z,98920.61
2019-01-12T14:35:05.963Z,98924.08
2019-01-12T14:37:38.478Z,98917.98
2019-01-12T14:40:14.888Z,98916.33
2019-01-12T14:42:46.925Z,98913.55
2019-01-12T14:45:22.852Z,98913.14
2019-01-12T14:47:54.767Z,98918.03
2019-01-12T14:50:31.101Z,98913.23
2019-01-12T14:53:04.110Z,98926.00
2019-01-12T14:55:35.896Z,98924.94
2019-01-12T14:58:10.263Z,98926.51
2019-01-12T15:00:42.377Z,98925.78
2019-01-12T15:03:13.985Z,98927.09
2019-01-12T15:05:46.193Z,98922.35
2019-01-12T15:08:18.067Z,98921.75
2019-01-12T15:10:50.086Z,98917.46
2019-01-12T15:13:23.199Z,98917.66
2019-01-12T15:15:55.643Z,98909.64
2019-01-12T15:18:29.825Z,98911.54
2019-01-12T15:21:02.151Z,98915.86
2019-01-12T15:23:34.510Z,98908.86
2019-01-12T15:26:07.024Z,98915.88
2019-01-12T15:28:40.928Z,98911.70
2019-01-12T15:31:13.594Z,98914.20
2019-01-12T15:33:46.451Z,98911.58
2019-01-12T15:36:19.066Z,98914.16
2019-01-12T15:38:54.066Z,98918.80
2019-01-12T15:41:26.895Z,98917.14
2019-01-12T15:43:59.169Z,98917.41
2019-01-12T15:46:31.862Z,98914.98
2019-01-12T15:49:05.352Z,98917.28
2019-01-12T15:51:37.401Z,98924.08
2019-01-12T15:54:09.571Z,98919.09
2019-01-12T15:56:45.694Z,98922.45
2019-01-12T15:59:19.525Z,98915.07
2019-01-12T16:01:51.826Z,98920.48
2019-01-12T16:04:24.126Z,98933.80
2019-01-12T16:06:56.312Z,98923.58
2019-01-12T16:09:28.479Z,98923.47
2019-01-12T16:12:03.210Z,98926.45
2019-01-12T16:14:35.177Z,98929.66
2019-01-12T16:17:06.986Z,98929.95
2019-01-12T16:19:39.146Z,98932.44
2019-01-12T16:22:10.878Z,98928.83
2019-01-12T16:24:43.909Z,98931.98
2019-01-12T16:27:16.564Z,98934.06
2019-01-12T16:29:48.650Z,98929.73
2019-01-12T16:32:21.854Z,98939.52
2019-01-12T16:34:56.024Z,98938.34
2019-01-12T16:37:31.951Z,98942.92
2019-01-12T16:40:04.367Z,98936.47
2019-01-12T16:42:36.951Z,98939.92
2019-01-12T16:45:09.782Z,98936.73
2019-01-12T16:47:42.231Z,98937.68
2019-01-12T16:50:14.371Z,98937.64
2019-01-12T16:52:47.395Z,98943.50
2019-01-12T16:55:20.028Z,98943.67
2019-01-12T16:57:52.410Z,98945.34
2019-01-12T17:00:43.215Z,98938.44
2019-01-12T17:03:15.352Z,98950.57
2019-01-12T17:05:48.320Z,98950.07
2019-01-12T17:08:21.038Z,98953.05
2019-01-12T17:10:53.068Z,98964.94
2019-01-12T17:13:25.887Z,98965.58
2019-01-12T17:15:58.042Z,98962.55
2019-01-12T17:18:30.249Z,98974.22
2019-01-12T17:21:02.642Z,98972.97
2019-01-12T17:23:37.397Z,98968.57
2019-01-12T17:26:09.363Z,98963.79
2019-01-12T17:28:42.571Z,98962.37
2019-01-12T17:31:15.916Z,98969.15
2019-01-12T17:33:48.581Z,98973.31
2019-01-12T17:36:21.883Z,98968.87
2019-01-12T17:38:54.412Z,98968.58
2019-01-12T17:41:26.858Z,98971.16
2019-01-12T17:44:00.074Z,98960.06
2019-01-12T17:46:31.984Z,98964.92
2019-01-12T17:49:04.282Z,98968.08
2019-01-12T17:51:36.423Z,98969.28
2019-01-12T17:54:08.896Z,98957.68
2019-01-12T17:56:42.596Z,98965.45
2019-01-12T17:59:15.938Z,98968.55
2019-01-12T18:01:48.019Z,98967.16
2019-01-12T18:04:19.820Z,98977.13
2019-01-12T18:06:53.316Z,98976.81
2019-01-12T18:09:27.856Z,98973.09
2019-01-12T18:11:59.829Z,98971.28
2019-01-12T18:14:31.577Z,98970.60
2019-01-12T18:17:06.465Z,98964.94
2019-01-12T18:19:39.953Z,98965.08
2019-01-12T18:22:13.555Z,98952.53
2019-01-12T18:24:45.783Z,98955.80
2019-01-12T18:27:18.065Z,98949.25
2019-01-12T18:29:50.422Z,98952.80
2019-01-12T18:32:23.621Z,98951.73
2019-01-12T18:34:55.719Z,98957.91
2019-01-12T18:37:29.023Z,98954.31
2019-01-12T18:40:02.124Z,98945.23
2019-01-12T18:42:35.328Z,98946.28
2019-01-12T18:45:09.676Z,98949.22
2019-01-12T18:47:42.901Z,98963.61
2019-01-12T18:50:21.593Z,98956.11
2019-01-12T18:52:53.495Z,98961.02
2019-01-12T18:55:25.902Z,98955.16
2019-01-12T18:57:59.526Z,98963.92
2019-01-12T19:00:32.680Z,98967.02
2019-01-12T19:03:05.492Z,98964.98
2019-01-12T19:05:38.735Z,98959.42
2019-01-12T19:08:12.272Z,98953.20
2019-01-12T19:10:44.316Z,98954.19
2019-01-12T19:13:16.541Z,98952.26
2019-01-12T19:15:48.423Z,98955.44
2019-01-12T19:18:20.826Z,98952.44
2019-01-12T19:20:52.757Z,98951.75
2019-01-12T19:23:24.739Z,98939.35
2019-01-12T19:25:57.149Z,98946.02
2019-01-12T19:28:28.991Z,98953.30
2019-01-12T19:31:01.341Z,98951.11
2019-01-12T19:33:33.568Z,98949.77
2019-01-12T19:36:05.693Z,98954.41
2019-01-12T19:38:38.419Z,98946.17
2019-01-12T19:41:16.149Z,98945.56
2019-01-12T19:43:48.702Z,98943.59
2019-01-12T19:46:22.131Z,98938.25
2019-01-12T19:48:54.545Z,98940.13
2019-01-12T19:51:29.203Z,98940.59
2019-01-12T19:54:01.670Z,98940.23
2019-01-12T19:56:33.944Z,98942.53
2019-01-12T19:59:13.483Z,98943.42
2019-01-12T20:01:41.928Z,98937.88
2019-01-12T20:04:16.936Z,98940.05
2019-01-12T20:06:49.610Z,98943.06
2019-01-12T20:09:22.771Z,98941.28
2019-01-12T20:11:55.717Z,98942.60
2019-01-12T20:14:28.008Z,98935.35
2019-01-12T20:17:00.830Z,98938.27
2019-01-12T20:19:33.446Z,98933.59
2019-01-12T20:22:07.479Z,98941.89
2019-01-12T20:24:39.500Z,98930.91
2019-01-12T20:27:11.717Z,98916.56
2019-01-12T20:29:45.529Z,98918.31
2019-01-12T20:33:21.483Z,98921.38
2019-01-12T20:36:57.563Z,98931.78
2019-01-12T20:40:26.431Z,98914.52
2019-01-12T20:43:30.174Z,98921.58
2019-01-12T20:46:51.079Z,98916.77
2019-01-12T20:50:30.957Z,98905.06
2019-01-12T20:53:41.156Z,98906.42
2019-01-12T20:57:03.885Z,98918.52
2019-01-12T21:00:26.788Z,98912.06
2019-01-12T21:03:44.235Z,98902.83
2019-01-12T21:06:59.981Z,98882.12
2019-01-12T21:10:30.398Z,98874.30
2019-01-12T21:14:07.390Z,98875.69
2019-01-12T21:16:45.993Z,98864.75
2019-01-12T21:19:22.884Z,98869.92
2019-01-12T21:21:55.590Z,98873.04
2019-01-12T21:24:28.285Z,98870.12
2019-01-12T21:27:01.107Z,98870.02
2019-01-12T21:29:35.298Z,98873.50
2019-01-12T21:32:10.956Z,98874.81
2019-01-12T21:34:44.479Z,98879.07
2019-01-12T21:37:17.171Z,98877.03
2019-01-12T21:39:50.497Z,98865.53
2019-01-12T21:42:23.120Z,98851.88
2019-01-12T21:44:56.123Z,98854.95
2019-01-12T21:47:28.156Z,98864.36
2019-01-12T21:50:00.266Z,98856.39
2019-01-12T21:52:32.414Z,98855.14
2019-01-12T21:55:04.682Z,98845.80
2019-01-12T21:57:36.772Z,98837.59
2019-01-12T22:00:14.616Z,98833.69
2019-01-12T22:02:47.798Z,98833.98
2019-01-12T22:05:19.968Z,98832.31
2019-01-12T22:07:52.133Z,98825.92
2019-01-12T22:10:23.914Z,98826.34
2019-01-12T22:13:02.056Z,98814.16
2019-01-12T22:15:34.469Z,98798.81
2019-01-12T22:18:06.572Z,98796.28
2019-01-12T22:20:38.909Z,98803.09
2019-01-12T22:23:12.460Z,98813.52
2019-01-12T22:25:44.609Z,98808.20
2019-01-12T22:28:16.957Z,98803.08
2019-01-12T22:30:54.601Z,98792.17
2019-01-12T22:33:26.879Z,98794.33
2019-01-12T22:35:59.375Z,98798.02
2019-01-12T22:38:31.759Z,98803.95
2019-01-12T22:41:04.521Z,98810.38
2019-01-12T22:43:37.624Z,98814.68
2019-01-12T22:46:09.925Z,98814.69
2019-01-12T22:48:43.640Z,98823.44
2019-01-12T22:51:15.640Z,98824.89
2019-01-12T22:53:47.777Z,98827.93
2019-01-12T22:56:22.689Z,98826.77
2019-01-12T22:58:55.055Z,98821.36
2019-01-12T23:01:57.835Z,98815.05
2019-01-12T23:04:31.868Z,98812.05
2019-01-12T23:07:11.557Z,98812.45
2019-01-12T23:09:42.293Z,98803.94
2019-01-12T23:12:15.529Z,98806.01
2019-01-12T23:14:48.031Z,98818.23
2019-01-12T23:17:20.846Z,98810.97
2019-01-12T23:19:53.062Z,98800.23
2019-01-12T23:22:25.924Z,98804.70
2019-01-12T23:24:59.145Z,98797.89
2019-01-12T23:27:32.239Z,98804.73
2019-01-12T23:30:06.845Z,98796.52
2019-01-12T23:32:39.713Z,98790.02
2019-01-12T23:35:12.797Z,98797.29
2019-01-12T23:37:45.459Z,98787.02
2019-01-12T23:40:18.336Z,98794.52
2019-01-12T23:42:51.777Z,98801.39
2019-01-12T23:45:23.900Z,98803.37
2019-01-12T23:47:58.768Z,98809.27
2019-01-12T23:50:34.947Z,98805.55
2019-01-12T23:53:10.550Z,98804.34
2019-01-12T23:55:47.195Z,98801.66
2019-01-12T23:58:20.885Z,98783.73
